LFBU/ANG METAR and TAF weather

Enter ICAO airport designator
Station Type Date Time Source
LFBU METAR 2019/08/24 23:00 UTC NOAA

LFBU 242300Z AUTO VRB02KT CAVOK 21/13 Q1017


Station Type Date Time Source
LFBU Decoded METAR 2019/08/24 23:00 UTC NOAA

Station name not available
Aug 24, 2019 - 07:00 PM EDT / 2019.08.24 2300 UTC
Wind: Variable at 2 MPH (2 KT):0
Visibility: greater than 7 mile(s):0
Temperature: 69 F (21 C)
Dew Point: 55 F (13 C)
Relative Humidity: 60%
Pressure (altimeter): 30.03 in. Hg (1017 hPa)
ob: LFBU 242300Z AUTO VRB02KT CAVOK 21/13 Q1017
cycle: 23

Station Type Date Time Source
LFBU TAF 2019/08/24 21:00 UTC NOAA

TAF
AMD LFBU 242106Z 2421/2518 CNL

Example: see airport list